createdAt,value
2022-08-20T00:04:02.624Z,21.23
2022-08-20T00:09:04.849Z,21.15
2022-08-20T00:14:07.586Z,21.21
2022-08-20T00:19:10.273Z,21.24
2022-08-20T00:24:11.957Z,21.15
2022-08-20T00:29:13.681Z,21.04
2022-08-20T00:34:18.332Z,21.02
2022-08-20T00:39:20.112Z,21.12
2022-08-20T00:44:23.300Z,21.10
2022-08-20T00:49:32.252Z,21.02
2022-08-20T00:54:39.498Z,21.01
2022-08-20T00:59:43.520Z,20.97
2022-08-20T01:04:52.511Z,20.89
2022-08-20T01:09:58.889Z,20.95
2022-08-20T01:15:05.451Z,20.98
2022-08-20T01:20:25.177Z,20.93
2022-08-20T01:26:12.581Z,20.78
2022-08-20T01:31:24.749Z,20.97
2022-08-20T01:36:49.156Z,20.81
2022-08-20T01:42:15.407Z,20.70
2022-08-20T01:47:38.325Z,20.55
2022-08-20T01:52:57.315Z,20.33
2022-08-20T01:58:01.147Z,20.21
2022-08-20T02:03:03.678Z,20.22
2022-08-20T02:08:06.169Z,20.10
2022-08-20T02:13:10.092Z,20.05
2022-08-20T02:18:15.818Z,20.05
2022-08-20T02:23:17.626Z,20.02
2022-08-20T02:28:20.658Z,20.05
2022-08-20T02:33:24.440Z,20.08
2022-08-20T02:38:26.418Z,20.04
2022-08-20T02:43:29.339Z,20.11
2022-08-20T02:48:33.591Z,20.06
2022-08-20T02:53:41.760Z,20.11
2022-08-20T02:58:44.136Z,20.04
2022-08-20T03:03:47.102Z,20.02
2022-08-20T03:08:48.881Z,20.01
2022-08-20T03:13:52.112Z,19.99
2022-08-20T03:18:53.853Z,20.02
2022-08-20T03:23:55.576Z,20.05
2022-08-20T03:28:57.355Z,20.04
2022-08-20T03:33:59.216Z,20.05
2022-08-20T03:39:07.246Z,20.08
2022-08-20T03:44:10.124Z,20.01
2022-08-20T03:49:11.880Z,20.04
2022-08-20T03:54:13.605Z,20.01
2022-08-20T03:59:15.456Z,20.05
2022-08-20T04:04:17.197Z,20.02
2022-08-20T04:09:19.041Z,20.06
2022-08-20T04:14:20.765Z,20.02
2022-08-20T04:19:22.796Z,20.08
2022-08-20T04:24:32.286Z,20.01
2022-08-20T04:29:37.691Z,20.02
2022-08-20T04:34:40.575Z,20.04
2022-08-20T04:39:42.295Z,20.06
2022-08-20T04:44:44.034Z,20.12
2022-08-20T04:49:45.745Z,20.09
2022-08-20T04:54:47.614Z,20.07
2022-08-20T04:59:49.698Z,20.08
2022-08-20T05:04:51.464Z,20.19
2022-08-20T05:09:53.222Z,20.15
2022-08-20T05:14:55.331Z,20.07
2022-08-20T05:19:59.166Z,20.02
2022-08-20T05:25:01.910Z,19.99
2022-08-20T05:30:13.585Z,20.01
2022-08-20T05:35:15.578Z,19.94
2022-08-20T05:40:17.552Z,19.94
2022-08-20T05:45:21.081Z,20.00
2022-08-20T05:50:23.497Z,20.02
2022-08-20T05:55:25.352Z,20.00
2022-08-20T06:00:29.474Z,20.10
2022-08-20T06:05:32.222Z,20.05
2022-08-20T06:10:35.656Z,20.10
2022-08-20T06:15:37.569Z,20.01
2022-08-20T06:20:39.745Z,20.02
2022-08-20T06:25:41.504Z,19.95
2022-08-20T06:30:43.322Z,20.08
2022-08-20T06:35:45.166Z,20.08
2022-08-20T06:40:47.292Z,20.04
2022-08-20T06:46:03.919Z,19.98
2022-08-20T06:51:10.869Z,19.97
2022-08-20T06:56:13.665Z,20.01
2022-08-20T07:01:21.274Z,20.03
2022-08-20T07:06:25.836Z,20.01
2022-08-20T07:11:28.884Z,20.04
2022-08-20T07:16:31.967Z,19.98
2022-08-20T07:21:34.168Z,19.94
2022-08-20T07:26:35.918Z,19.91
2022-08-20T07:31:56.033Z,19.99
2022-08-20T07:37:00.750Z,20.07
2022-08-20T07:42:07.194Z,20.07
2022-08-20T07:47:08.899Z,20.06
2022-08-20T07:52:10.608Z,20.19
2022-08-20T07:57:12.365Z,20.32
2022-08-20T08:02:14.170Z,20.41
2022-08-20T08:07:16.790Z,20.39
2022-08-20T08:12:18.730Z,20.49
2022-08-20T08:17:21.177Z,20.53
2022-08-20T08:22:23.057Z,20.55
2022-08-20T08:27:25.196Z,20.65
2022-08-20T08:32:28.457Z,20.61
2022-08-20T08:37:30.972Z,20.56
2022-08-20T08:42:55.608Z,20.63
2022-08-20T08:47:59.195Z,20.68
2022-08-20T08:53:05.659Z,20.74
2022-08-20T08:58:16.869Z,20.73
2022-08-20T09:03:33.054Z,20.85
2022-08-20T09:09:04.604Z,20.96
2022-08-20T09:14:08.326Z,20.88
2022-08-20T09:19:10.165Z,20.88
2022-08-20T09:24:11.882Z,20.91
2022-08-20T09:29:13.827Z,21.03
2022-08-20T09:34:16.822Z,21.11
2022-08-20T09:39:18.536Z,21.23
2022-08-20T09:44:20.258Z,21.14
2022-08-20T09:49:21.949Z,21.29
2022-08-20T09:54:23.852Z,21.32
2022-08-20T09:59:26.527Z,21.53
2022-08-20T10:04:28.326Z,21.47
2022-08-20T10:09:30.077Z,21.68
2022-08-20T10:14:32.249Z,21.69
2022-08-20T10:19:34.255Z,21.67
2022-08-20T10:24:35.997Z,21.56
2022-08-20T10:29:37.699Z,21.79
2022-08-20T10:34:43.015Z,21.99
2022-08-20T10:39:46.606Z,22.26
2022-08-20T10:44:48.421Z,22.36
2022-08-20T10:49:54.745Z,22.52
2022-08-20T10:54:56.848Z,22.60
2022-08-20T11:00:00.098Z,22.79
2022-08-20T11:05:01.926Z,22.67
2022-08-20T11:10:13.095Z,22.52
2022-08-20T11:15:15.846Z,22.33
2022-08-20T11:20:21.490Z,22.20
2022-08-20T11:25:23.755Z,22.20
2022-08-20T11:30:32.123Z,22.33
2022-08-20T11:35:49.023Z,22.39
2022-08-20T11:40:51.693Z,22.36
2022-08-20T11:45:56.401Z,22.33
2022-08-20T11:50:58.096Z,22.20
2022-08-20T11:56:00.439Z,22.13
2022-08-20T12:01:02.352Z,22.05
2022-08-20T12:06:05.982Z,22.09
2022-08-20T12:11:07.973Z,22.00
2022-08-20T12:16:09.739Z,22.01
2022-08-20T12:21:12.106Z,22.07
2022-08-20T12:26:16.551Z,22.01
2022-08-20T12:31:18.298Z,22.07
2022-08-20T12:36:20.232Z,22.14
2022-08-20T12:41:23.701Z,22.16
2022-08-20T12:46:25.494Z,22.12
2022-08-20T12:51:27.202Z,21.92
2022-08-20T12:56:28.910Z,21.83
2022-08-20T13:01:30.816Z,21.64
2022-08-20T13:06:32.572Z,21.54
2022-08-20T13:11:34.625Z,21.50
2022-08-20T13:16:36.571Z,21.41
2022-08-20T13:21:38.386Z,21.32
2022-08-20T13:26:40.577Z,21.21
2022-08-20T13:31:42.814Z,21.10
2022-08-20T13:36:44.591Z,21.01
2022-08-20T13:41:46.336Z,20.88
2022-08-20T13:46:48.535Z,21.03
2022-08-20T13:51:52.233Z,20.94
2022-08-20T13:57:03.932Z,20.74
2022-08-20T14:02:08.304Z,20.83
2022-08-20T14:07:28.859Z,20.71
2022-08-20T14:12:34.044Z,20.53
2022-08-20T14:17:41.574Z,20.59
2022-08-20T14:22:44.093Z,20.61
2022-08-20T14:27:46.276Z,20.52
2022-08-20T14:32:48.170Z,20.46
2022-08-20T14:37:54.177Z,20.53
2022-08-20T14:42:56.521Z,20.60
2022-08-20T14:47:59.794Z,20.57
2022-08-20T14:53:02.500Z,20.61
2022-08-20T14:58:12.994Z,20.58
2022-08-20T15:03:14.773Z,20.42
2022-08-20T15:08:18.942Z,20.56
2022-08-20T15:13:20.822Z,20.57
2022-08-20T15:18:25.052Z,20.49
2022-08-20T15:23:26.784Z,20.49
2022-08-20T15:28:28.507Z,20.54
2022-08-20T15:33:30.340Z,20.55
2022-08-20T15:38:33.077Z,20.52
2022-08-20T15:43:35.125Z,20.47
2022-08-20T15:48:43.248Z,20.60
2022-08-20T15:54:12.077Z,20.64
2022-08-20T15:59:51.741Z,20.66
2022-08-20T16:05:38.121Z,20.72
2022-08-20T16:11:31.077Z,20.75
2022-08-20T16:16:49.838Z,20.75
2022-08-20T16:22:02.506Z,20.67
2022-08-20T16:27:48.952Z,20.66
2022-08-20T16:33:10.281Z,20.71
2022-08-20T16:38:38.230Z,20.67
2022-08-20T16:43:56.270Z,20.60
2022-08-20T16:49:05.645Z,20.65
2022-08-20T16:54:08.723Z,20.53
2022-08-20T16:59:27.041Z,20.64
2022-08-20T17:04:29.542Z,20.62
2022-08-20T17:09:43.470Z,20.61
2022-08-20T17:14:55.034Z,20.67
2022-08-20T17:20:03.620Z,20.69
2022-08-20T17:25:34.961Z,20.68
2022-08-20T17:30:39.435Z,20.69
2022-08-20T17:35:52.169Z,20.67
2022-08-20T17:41:02.661Z,20.68
2022-08-20T17:46:19.096Z,20.64
2022-08-20T17:51:30.326Z,20.51
2022-08-20T17:56:40.041Z,20.17
2022-08-20T18:01:41.963Z,20.10
2022-08-20T18:07:28.342Z,19.89
2022-08-20T18:13:00.274Z,19.78
2022-08-20T18:18:56.570Z,19.70
2022-08-20T18:24:13.000Z,19.68
2022-08-20T18:29:27.527Z,19.58
2022-08-20T18:34:29.631Z,19.67
2022-08-20T18:39:40.645Z,19.68
2022-08-20T18:44:48.525Z,19.62
2022-08-20T18:50:20.088Z,19.62
2022-08-20T18:56:04.879Z,19.58
2022-08-20T19:01:13.510Z,19.57
2022-08-20T19:06:55.490Z,19.61
2022-08-20T19:12:31.388Z,19.62
2022-08-20T19:18:09.532Z,19.64
2022-08-20T19:23:21.599Z,19.55
2022-08-20T19:29:01.746Z,19.53
2022-08-20T19:34:25.610Z,19.58
2022-08-20T19:39:36.741Z,19.53
2022-08-20T19:44:53.456Z,19.63
2022-08-20T19:50:23.057Z,19.59
2022-08-20T19:55:32.921Z,19.42
2022-08-20T20:00:48.607Z,19.45
2022-08-20T20:06:02.591Z,19.54
2022-08-20T20:11:05.749Z,19.53
2022-08-20T20:16:07.782Z,19.39
2022-08-20T20:21:44.424Z,19.51
2022-08-20T20:26:49.387Z,19.47
2022-08-20T20:31:59.510Z,19.44
2022-08-20T20:37:10.304Z,19.57
2022-08-20T20:42:28.405Z,19.55
2022-08-20T20:47:35.980Z,19.47
2022-08-20T20:52:55.642Z,19.54
2022-08-20T20:57:59.720Z,19.64
2022-08-20T21:03:04.709Z,19.57
2022-08-20T21:08:13.999Z,19.61
2022-08-20T21:13:16.471Z,19.54
2022-08-20T21:18:19.465Z,19.50
2022-08-20T21:23:40.270Z,19.58
2022-08-20T21:28:43.720Z,19.64
2022-08-20T21:33:47.659Z,19.63
2022-08-20T21:38:55.612Z,19.64
2022-08-20T21:44:10.195Z,19.58
2022-08-20T21:49:12.486Z,19.48
2022-08-20T21:54:14.366Z,19.55
2022-08-20T21:59:17.717Z,19.52
2022-08-20T22:04:19.907Z,19.39
2022-08-20T22:09:21.980Z,19.44
2022-08-20T22:14:23.864Z,19.44
2022-08-20T22:19:25.680Z,19.35
2022-08-20T22:24:29.680Z,19.41
2022-08-20T22:29:32.609Z,19.35
2022-08-20T22:34:43.350Z,19.45
2022-08-20T22:39:45.183Z,19.30
2022-08-20T22:44:50.713Z,19.18
2022-08-20T22:49:53.660Z,19.30
2022-08-20T22:54:58.980Z,19.30
2022-08-20T23:00:01.695Z,19.36
2022-08-20T23:05:11.974Z,19.37
2022-08-20T23:10:17.057Z,19.36
2022-08-20T23:15:19.798Z,19.41
2022-08-20T23:20:21.604Z,19.31
2022-08-20T23:25:23.588Z,19.38
2022-08-20T23:30:28.726Z,19.40
2022-08-20T23:35:32.981Z,19.37
2022-08-20T23:40:36.668Z,19.35
2022-08-20T23:45:42.438Z,19.28
2022-08-20T23:50:44.173Z,19.13
2022-08-20T23:55:46.257Z,19.19
